createdAt,value
2022-07-30T00:00:50.187Z,22.50
2022-07-30T00:02:52.218Z,22.60
2022-07-30T00:04:54.145Z,22.50
2022-07-30T00:06:56.066Z,22.50
2022-07-30T00:08:58.918Z,22.40
2022-07-30T00:11:00.778Z,22.50
2022-07-30T00:13:02.776Z,22.50
2022-07-30T00:15:04.918Z,22.40
2022-07-30T00:17:07.108Z,22.40
2022-07-30T00:19:09.802Z,22.50
2022-07-30T00:21:11.598Z,22.40
2022-07-30T00:23:22.081Z,22.50
2022-07-30T00:25:24.172Z,22.60
2022-07-30T00:27:25.986Z,22.50
2022-07-30T00:29:27.820Z,22.60
2022-07-30T00:31:30.746Z,22.70
2022-07-30T00:33:32.552Z,22.70
2022-07-30T00:35:34.361Z,22.60
2022-07-30T00:37:36.070Z,22.70
2022-07-30T00:39:37.836Z,22.80
2022-07-30T00:42:00.271Z,22.70
2022-07-30T00:44:02.259Z,23.00
2022-07-30T00:46:04.433Z,22.80
2022-07-30T00:48:06.336Z,23.50
2022-07-30T00:50:11.544Z,23.00
2022-07-30T00:52:13.880Z,23.10
2022-07-30T00:54:16.400Z,23.00
2022-07-30T00:56:18.215Z,23.20
2022-07-30T00:58:19.979Z,23.20
2022-07-30T01:00:21.939Z,23.10
2022-07-30T01:02:23.965Z,23.20
2022-07-30T01:04:25.761Z,23.30
2022-07-30T01:06:27.977Z,23.50
2022-07-30T01:08:29.848Z,23.50
2022-07-30T01:10:31.650Z,23.60
2022-07-30T01:12:33.807Z,23.60
2022-07-30T01:14:36.488Z,23.60
2022-07-30T01:16:41.329Z,23.60
2022-07-30T01:19:05.026Z,23.60
2022-07-30T01:21:11.169Z,23.70
2022-07-30T01:23:27.642Z,23.70
2022-07-30T01:25:32.138Z,23.80
2022-07-30T01:27:41.745Z,23.60
2022-07-30T01:29:46.679Z,24.00
2022-07-30T01:31:50.489Z,23.70
2022-07-30T01:33:55.093Z,23.70
2022-07-30T01:35:59.077Z,23.70
2022-07-30T01:38:03.619Z,23.60
2022-07-30T01:40:06.825Z,23.70
2022-07-30T01:42:10.858Z,23.70
2022-07-30T01:44:14.397Z,23.60
2022-07-30T01:46:17.758Z,23.70
2022-07-30T01:48:25.324Z,23.90
2022-07-30T01:50:30.783Z,23.90
2022-07-30T01:52:35.190Z,24.00
2022-07-30T01:54:38.918Z,24.00
2022-07-30T01:56:42.469Z,24.20
2022-07-30T01:58:48.154Z,24.20
2022-07-30T02:00:58.242Z,24.20
2022-07-30T02:03:01.444Z,24.20
2022-07-30T02:05:03.937Z,24.20
2022-07-30T02:07:19.933Z,24.20
2022-07-30T02:09:29.048Z,24.30
2022-07-30T02:11:55.236Z,24.40
2022-07-30T02:13:57.795Z,24.50
2022-07-30T02:16:03.283Z,24.40
2022-07-30T02:18:13.461Z,24.40
2022-07-30T02:20:16.568Z,24.40
2022-07-30T02:22:20.900Z,24.40
2022-07-30T02:24:29.451Z,24.30
2022-07-30T02:26:35.520Z,24.40
2022-07-30T02:28:41.274Z,24.30
2022-07-30T02:30:59.592Z,24.30
2022-07-30T02:33:10.458Z,24.50
2022-07-30T02:35:17.085Z,24.50
2022-07-30T02:37:41.677Z,24.30
2022-07-30T02:39:45.092Z,24.20
2022-07-30T02:41:49.840Z,24.10
2022-07-30T02:43:53.889Z,24.10
2022-07-30T02:45:59.446Z,24.10
2022-07-30T02:48:11.783Z,24.20
2022-07-30T02:50:34.307Z,24.20
2022-07-30T02:52:36.569Z,24.20
2022-07-30T02:54:41.078Z,24.20
2022-07-30T02:56:44.375Z,24.50
2022-07-30T02:58:46.986Z,24.30
2022-07-30T03:00:52.277Z,24.40
2022-07-30T03:02:57.124Z,24.60
2022-07-30T03:05:01.303Z,24.60
2022-07-30T03:07:08.175Z,24.80
2022-07-30T03:09:10.545Z,24.60
2022-07-30T03:11:14.047Z,24.60
2022-07-30T03:13:18.005Z,24.70
2022-07-30T03:15:20.089Z,24.80
2022-07-30T03:17:25.651Z,24.80
2022-07-30T03:19:32.635Z,24.80
2022-07-30T03:21:37.189Z,24.90
2022-07-30T03:23:40.739Z,24.90
2022-07-30T03:25:45.552Z,25.00
2022-07-30T03:27:49.096Z,24.80
2022-07-30T03:29:52.685Z,25.00
2022-07-30T03:31:55.353Z,24.80
2022-07-30T03:33:57.533Z,24.80
2022-07-30T03:35:59.842Z,24.80
2022-07-30T03:38:02.950Z,25.00
2022-07-30T03:40:06.975Z,25.10
2022-07-30T03:42:09.330Z,24.90
2022-07-30T03:44:13.319Z,25.00
2022-07-30T03:46:17.090Z,25.00
2022-07-30T03:48:23.075Z,25.00
2022-07-30T03:50:24.929Z,24.90
2022-07-30T03:52:28.307Z,24.90
2022-07-30T03:54:36.054Z,24.90
2022-07-30T03:56:41.785Z,24.90
2022-07-30T03:58:47.377Z,24.80
2022-07-30T04:00:50.677Z,24.70
2022-07-30T04:02:52.710Z,25.30
2022-07-30T04:05:13.942Z,24.70
2022-07-30T04:07:15.843Z,24.60
2022-07-30T04:09:17.648Z,24.70
2022-07-30T04:11:19.437Z,24.70
2022-07-30T04:13:42.958Z,24.80
2022-07-30T04:16:41.294Z,24.70
2022-07-30T04:18:37.582Z,25.00
2022-07-30T04:20:44.605Z,25.00
2022-07-30T04:22:47.691Z,25.00
2022-07-30T04:24:52.098Z,24.90
2022-07-30T04:26:54.207Z,24.90
2022-07-30T04:28:56.113Z,25.00
2022-07-30T04:30:58.420Z,24.90
2022-07-30T04:33:01.078Z,25.00
2022-07-30T04:35:23.803Z,25.10
2022-07-30T04:37:48.453Z,25.20
2022-07-30T04:39:54.160Z,25.10
2022-07-30T04:41:56.448Z,25.00
2022-07-30T04:44:11.701Z,24.90
2022-07-30T04:46:24.698Z,25.00
2022-07-30T04:48:28.388Z,25.20
2022-07-30T04:51:00.135Z,25.20
2022-07-30T04:53:03.331Z,25.40
2022-07-30T04:55:11.125Z,25.40
2022-07-30T04:57:15.530Z,25.40
2022-07-30T04:59:19.047Z,25.40
2022-07-30T05:01:40.386Z,25.40
2022-07-30T05:03:43.524Z,25.40
2022-07-30T05:05:47.060Z,25.40
2022-07-30T05:07:49.070Z,25.40
2022-07-30T05:09:50.921Z,25.40
2022-07-30T05:11:56.824Z,25.40
2022-07-30T05:13:59.021Z,25.50
2022-07-30T05:16:00.906Z,25.50
2022-07-30T05:18:03.206Z,25.50
2022-07-30T05:20:07.197Z,25.60
2022-07-30T05:22:35.052Z,25.60
2022-07-30T05:24:36.820Z,25.60
2022-07-30T05:26:38.875Z,25.70
2022-07-30T05:28:42.568Z,25.70
2022-07-30T05:30:48.991Z,25.70
2022-07-30T05:32:53.514Z,26.20
2022-07-30T05:34:59.227Z,25.70
2022-07-30T05:37:02.752Z,25.70
2022-07-30T05:39:05.568Z,25.70
2022-07-30T05:41:32.403Z,25.70
2022-07-30T05:43:55.938Z,25.80
2022-07-30T05:45:58.392Z,25.80
2022-07-30T05:48:00.200Z,25.80
2022-07-30T05:50:05.085Z,25.80
2022-07-30T05:52:07.442Z,25.80
2022-07-30T05:54:09.551Z,25.60
2022-07-30T05:56:32.098Z,25.50
2022-07-30T05:58:40.065Z,25.50
2022-07-30T06:00:42.132Z,25.30
2022-07-30T06:02:44.253Z,25.40
2022-07-30T06:05:01.256Z,25.30
2022-07-30T06:07:03.786Z,25.40
2022-07-30T06:09:06.285Z,25.30
2022-07-30T06:11:11.103Z,25.10
2022-07-30T06:13:14.963Z,25.20
2022-07-30T06:15:20.553Z,25.20
2022-07-30T06:17:27.690Z,25.20
2022-07-30T06:19:49.314Z,25.20
2022-07-30T06:22:06.160Z,25.30
2022-07-30T06:24:14.197Z,25.20
2022-07-30T06:26:19.939Z,25.30
2022-07-30T06:28:39.194Z,25.20
2022-07-30T06:31:10.978Z,25.20
2022-07-30T06:33:12.973Z,25.30
2022-07-30T06:35:14.969Z,25.10
2022-07-30T06:37:17.565Z,25.00
2022-07-30T06:39:56.231Z,24.90
2022-07-30T06:41:54.650Z,25.00
2022-07-30T06:43:56.420Z,24.90
2022-07-30T06:46:36.875Z,24.70
2022-07-30T06:48:38.892Z,24.60
2022-07-30T06:50:44.069Z,24.70
2022-07-30T06:52:46.024Z,24.50
2022-07-30T06:54:48.405Z,24.50
2022-07-30T06:57:00.414Z,24.30
2022-07-30T06:59:02.590Z,24.40
2022-07-30T07:01:30.524Z,24.10
2022-07-30T07:03:39.407Z,23.90
2022-07-30T07:05:42.196Z,23.70
2022-07-30T07:07:52.447Z,23.60
2022-07-30T07:10:01.157Z,23.60
2022-07-30T07:12:26.374Z,23.60
2022-07-30T07:14:28.458Z,23.20
2022-07-30T07:16:30.351Z,23.20
2022-07-30T07:18:34.357Z,23.20
2022-07-30T07:20:40.705Z,23.10
2022-07-30T07:22:45.263Z,22.90
2022-07-30T07:24:47.259Z,22.90
2022-07-30T07:26:54.586Z,22.90
2022-07-30T07:28:56.607Z,22.70
2022-07-30T07:30:58.619Z,22.50
2022-07-30T07:33:00.474Z,22.50
2022-07-30T07:35:02.610Z,22.40
2022-07-30T07:37:04.943Z,21.90
2022-07-30T07:39:13.007Z,21.60
2022-07-30T07:41:18.317Z,21.80
2022-07-30T07:43:20.070Z,21.70
2022-07-30T07:45:21.902Z,22.10
2022-07-30T07:47:51.942Z,21.90
2022-07-30T07:50:17.083Z,21.20
2022-07-30T07:52:18.852Z,20.90
2022-07-30T07:54:23.002Z,20.80
2022-07-30T07:56:26.535Z,20.70
2022-07-30T07:58:29.399Z,20.80
2022-07-30T08:00:34.790Z,20.40
2022-07-30T08:02:37.623Z,19.80
2022-07-30T08:04:41.461Z,19.90
2022-07-30T08:06:45.941Z,20.00
2022-07-30T08:09:10.829Z,19.70
2022-07-30T08:11:35.672Z,19.50
2022-07-30T08:14:00.286Z,19.10
2022-07-30T08:16:22.206Z,19.00
2022-07-30T08:18:42.560Z,18.80
2022-07-30T08:20:59.248Z,18.60
2022-07-30T08:23:06.744Z,17.80
2022-07-30T08:25:09.407Z,17.70
2022-07-30T08:27:11.221Z,17.30
2022-07-30T08:29:17.100Z,17.10
2022-07-30T08:31:20.163Z,17.20
2022-07-30T08:33:21.887Z,16.80
2022-07-30T08:35:32.039Z,16.80
2022-07-30T08:37:34.204Z,16.20
2022-07-30T08:39:36.577Z,15.80
2022-07-30T08:41:38.835Z,15.40
2022-07-30T08:43:41.059Z,15.20
2022-07-30T08:45:43.742Z,15.40
2022-07-30T08:48:01.841Z,14.80
2022-07-30T08:50:16.859Z,15.20
2022-07-30T08:52:45.932Z,14.20
2022-07-30T08:54:47.775Z,12.80
2022-07-30T08:56:50.049Z,13.30
2022-07-30T08:58:52.439Z,13.30
2022-07-30T09:02:57.253Z,12.50
2022-07-30T09:05:00.708Z,13.00
2022-07-30T09:07:05.773Z,12.60
2022-07-30T09:09:10.511Z,13.20
2022-07-30T09:11:12.515Z,12.40
2022-07-30T09:13:23.980Z,12.40
2022-07-30T09:15:25.977Z,12.20
2022-07-30T09:17:31.264Z,12.00
2022-07-30T09:19:34.796Z,12.00
2022-07-30T09:21:36.679Z,12.10
2022-07-30T09:24:10.142Z,11.50
2022-07-30T09:26:58.312Z,11.60
2022-07-30T09:29:24.658Z,12.20
2022-07-30T09:32:01.764Z,11.90
2022-07-30T09:34:29.467Z,11.40
2022-07-30T09:36:37.637Z,11.30
2022-07-30T09:39:05.571Z,11.50
2022-07-30T09:41:41.420Z,11.80
2022-07-30T09:43:50.258Z,11.20
2022-07-30T09:46:18.768Z,11.20
2022-07-30T09:48:23.078Z,11.10
2022-07-30T09:50:30.353Z,11.50
2022-07-30T09:52:36.416Z,11.50
2022-07-30T09:54:52.608Z,11.20
2022-07-30T09:57:23.246Z,10.70
2022-07-30T09:59:34.779Z,10.50
2022-07-30T10:01:54.718Z,10.00
2022-07-30T10:04:26.051Z,10.50
2022-07-30T10:06:41.808Z,10.50
2022-07-30T10:09:01.484Z,10.20
2022-07-30T10:11:31.290Z,10.40
2022-07-30T10:13:36.211Z,10.10
2022-07-30T10:15:38.874Z,9.80
2022-07-30T10:17:42.168Z,9.80
2022-07-30T10:19:55.923Z,9.10
2022-07-30T10:22:17.063Z,8.80
2022-07-30T10:24:46.764Z,8.90
2022-07-30T10:26:55.363Z,8.20
2022-07-30T10:29:17.979Z,8.20
2022-07-30T10:31:49.219Z,7.40
2022-07-30T10:33:43.128Z,6.40
2022-07-30T10:35:49.569Z,6.30
2022-07-30T10:37:52.742Z,6.00
2022-07-30T10:39:59.771Z,5.80
2022-07-30T10:42:20.241Z,5.90
2022-07-30T10:44:47.850Z,6.30
2022-07-30T10:47:06.930Z,6.30
2022-07-30T10:49:18.948Z,6.50
2022-07-30T10:51:25.471Z,6.30
2022-07-30T10:53:42.616Z,6.90
2022-07-30T10:55:44.378Z,7.30
2022-07-30T10:58:12.142Z,6.50
2022-07-30T11:00:15.622Z,6.10
2022-07-30T11:02:20.359Z,6.00
2022-07-30T11:04:30.011Z,6.00
2022-07-30T11:06:31.792Z,5.70
2022-07-30T11:08:42.583Z,4.70
2022-07-30T11:10:45.016Z,5.10
2022-07-30T11:12:52.807Z,5.30
2022-07-30T11:15:07.735Z,6.00
2022-07-30T11:17:20.189Z,5.60
2022-07-30T11:19:55.707Z,5.10
2022-07-30T11:21:48.034Z,5.00
2022-07-30T11:23:54.935Z,5.20
2022-07-30T11:26:01.326Z,5.50
2022-07-30T11:28:03.480Z,5.60
2022-07-30T11:30:27.297Z,6.00
2022-07-30T11:32:33.070Z,5.50
2022-07-30T11:34:34.946Z,5.40
2022-07-30T11:36:37.617Z,4.70
2022-07-30T11:38:52.524Z,4.10
2022-07-30T11:40:54.989Z,4.80
2022-07-30T11:43:34.693Z,4.90
2022-07-30T11:45:39.057Z,4.90
2022-07-30T11:47:45.406Z,4.10
2022-07-30T11:49:47.212Z,4.40
2022-07-30T11:51:50.033Z,3.70
2022-07-30T11:54:05.254Z,3.70
2022-07-30T11:56:09.426Z,3.50
2022-07-30T11:58:33.057Z,3.60
2022-07-30T12:00:38.518Z,3.60
2022-07-30T12:02:40.380Z,3.70
2022-07-30T12:04:45.301Z,3.70
2022-07-30T12:06:48.499Z,3.80
2022-07-30T12:08:58.339Z,3.70
2022-07-30T12:11:01.592Z,3.10
2022-07-30T12:13:16.579Z,3.00
2022-07-30T12:15:33.757Z,3.40
2022-07-30T12:17:45.399Z,3.50
2022-07-30T12:19:48.763Z,3.40
2022-07-30T12:21:53.240Z,3.00
2022-07-30T12:24:03.940Z,3.00
2022-07-30T12:26:06.411Z,2.50
2022-07-30T12:28:21.450Z,3.20
2022-07-30T12:30:24.447Z,3.50
2022-07-30T12:32:27.133Z,4.10
2022-07-30T12:34:30.384Z,2.70
2022-07-30T12:36:35.851Z,2.50
2022-07-30T12:38:45.895Z,2.80
2022-07-30T12:40:59.589Z,2.10
2022-07-30T12:43:01.294Z,1.40
2022-07-30T12:45:06.577Z,1.60
2022-07-30T12:47:31.042Z,1.30
2022-07-30T12:49:39.511Z,1.10
2022-07-30T12:51:59.696Z,1.20
2022-07-30T12:54:15.963Z,1.20
2022-07-30T12:56:29.346Z,1.60
2022-07-30T12:58:37.831Z,2.10
2022-07-30T13:00:52.088Z,1.80
2022-07-30T13:02:54.790Z,1.60
2022-07-30T13:05:10.277Z,1.50
2022-07-30T13:07:13.293Z,1.50
2022-07-30T13:09:21.903Z,1.80
2022-07-30T13:11:37.463Z,1.50
2022-07-30T13:13:39.608Z,1.70
2022-07-30T13:15:46.428Z,1.60
2022-07-30T13:17:56.317Z,1.50
2022-07-30T13:19:59.964Z,1.70
2022-07-30T13:22:01.789Z,1.90
2022-07-30T13:24:04.502Z,1.90
2022-07-30T13:26:07.803Z,1.00
2022-07-30T13:28:09.696Z,1.00
2022-07-30T13:30:11.747Z,1.00
2022-07-30T13:32:13.488Z,1.00
2022-07-30T13:34:15.763Z,1.00
2022-07-30T13:36:18.131Z,1.00
2022-07-30T13:38:20.213Z,1.20
2022-07-30T13:40:22.671Z,1.00
2022-07-30T13:42:24.785Z,1.10
2022-07-30T13:44:26.726Z,1.20
2022-07-30T13:46:28.781Z,1.00
2022-07-30T13:48:30.936Z,1.20
2022-07-30T13:50:32.784Z,1.00
2022-07-30T13:52:35.110Z,1.00
2022-07-30T13:54:36.904Z,1.00
2022-07-30T13:56:40.539Z,1.00
2022-07-30T13:58:43.370Z,1.00
2022-07-30T14:00:45.405Z,1.00
2022-07-30T14:02:47.271Z,1.00
2022-07-30T14:04:49.420Z,1.00
2022-07-30T14:06:51.877Z,1.00
2022-07-30T14:08:53.768Z,1.40
2022-07-30T14:10:55.567Z,1.20
2022-07-30T14:12:58.353Z,1.20
2022-07-30T14:15:00.553Z,1.00
2022-07-30T14:17:02.495Z,1.00
2022-07-30T14:19:04.588Z,1.00
2022-07-30T14:21:06.540Z,1.00
2022-07-30T14:23:09.031Z,1.00
2022-07-30T14:25:11.482Z,1.00
2022-07-30T14:27:13.805Z,1.00
2022-07-30T14:29:16.180Z,1.00
2022-07-30T14:31:18.072Z,1.10
2022-07-30T14:33:20.016Z,1.20
2022-07-30T14:35:21.831Z,1.40
2022-07-30T14:37:24.150Z,1.40
2022-07-30T14:39:25.967Z,1.50
2022-07-30T14:41:28.410Z,1.80
2022-07-30T14:43:30.159Z,2.40
2022-07-30T14:45:32.148Z,2.20
2022-07-30T14:47:33.937Z,2.00
2022-07-30T14:49:35.896Z,2.30
2022-07-30T14:51:37.934Z,2.40
2022-07-30T14:53:39.741Z,2.40
2022-07-30T14:55:42.081Z,2.70
2022-07-30T14:57:44.316Z,3.20
2022-07-30T14:59:46.178Z,2.40
2022-07-30T15:01:48.189Z,2.40
2022-07-30T15:03:50.445Z,2.60
2022-07-30T15:05:52.613Z,2.70
2022-07-30T15:07:54.492Z,2.90
2022-07-30T15:09:56.456Z,3.00
2022-07-30T15:12:08.586Z,2.80
2022-07-30T15:14:12.241Z,2.80
2022-07-30T15:16:14.560Z,2.80
2022-07-30T15:18:16.475Z,2.90
2022-07-30T15:20:19.109Z,3.00
2022-07-30T15:22:21.195Z,3.00
2022-07-30T15:24:23.173Z,3.00
2022-07-30T15:26:28.497Z,3.00
2022-07-30T15:28:30.584Z,2.90
2022-07-30T15:30:32.479Z,3.10
2022-07-30T15:32:34.543Z,3.10
2022-07-30T15:34:37.123Z,3.50
2022-07-30T15:36:39.446Z,3.40
2022-07-30T15:38:41.274Z,3.40
2022-07-30T15:40:43.692Z,3.50
2022-07-30T15:42:45.576Z,3.60
2022-07-30T15:44:49.095Z,3.90
2022-07-30T15:46:51.207Z,4.00
2022-07-30T15:48:53.104Z,4.10
2022-07-30T15:51:02.645Z,3.60
2022-07-30T15:53:09.526Z,3.60
2022-07-30T15:55:12.638Z,3.60
2022-07-30T15:57:14.587Z,3.70
2022-07-30T15:59:16.886Z,3.90
2022-07-30T16:01:18.759Z,3.80
2022-07-30T16:03:20.557Z,3.80
2022-07-30T16:05:23.360Z,3.80
2022-07-30T16:07:25.238Z,3.80
2022-07-30T16:09:27.431Z,4.10
2022-07-30T16:11:29.919Z,4.10
2022-07-30T16:13:35.282Z,4.30
2022-07-30T16:15:38.049Z,4.20
2022-07-30T16:17:40.129Z,4.40
2022-07-30T16:19:44.941Z,4.60
2022-07-30T16:21:46.996Z,4.60
2022-07-30T16:23:49.130Z,4.60
2022-07-30T16:25:50.944Z,4.60
2022-07-30T16:27:53.242Z,4.40
2022-07-30T16:29:55.149Z,4.60
2022-07-30T16:31:58.087Z,4.80
2022-07-30T16:34:00.258Z,5.30
2022-07-30T16:36:02.155Z,5.00
2022-07-30T16:38:04.219Z,5.40
2022-07-30T16:40:06.454Z,5.00
2022-07-30T16:42:08.180Z,4.90
2022-07-30T16:44:10.008Z,5.20
2022-07-30T16:46:11.848Z,5.20
2022-07-30T16:48:13.843Z,5.20
2022-07-30T16:50:15.983Z,5.10
2022-07-30T16:52:18.323Z,5.10
2022-07-30T16:54:20.500Z,5.10
2022-07-30T16:56:22.677Z,5.10
2022-07-30T16:58:30.955Z,5.10
2022-07-30T17:00:33.439Z,5.10
2022-07-30T17:02:35.463Z,5.30
2022-07-30T17:04:38.701Z,5.30
2022-07-30T17:06:41.062Z,5.50
2022-07-30T17:08:42.870Z,5.50
2022-07-30T17:10:46.680Z,5.80
2022-07-30T17:12:51.120Z,5.60
2022-07-30T17:14:53.173Z,5.40
2022-07-30T17:16:54.892Z,5.70
2022-07-30T17:18:56.640Z,5.70
2022-07-30T17:20:58.505Z,6.10
2022-07-30T17:23:00.323Z,6.00
2022-07-30T17:25:02.360Z,6.00
2022-07-30T17:27:04.596Z,5.80
2022-07-30T17:29:08.710Z,5.70
2022-07-30T17:31:14.011Z,6.00
2022-07-30T17:33:15.764Z,5.90
2022-07-30T17:35:17.699Z,6.10
2022-07-30T17:37:20.158Z,6.20
2022-07-30T17:40:26.299Z,6.00
2022-07-30T17:41:56.256Z,5.90
2022-07-30T17:44:05.282Z,6.10
2022-07-30T17:46:07.111Z,6.10
2022-07-30T17:48:09.402Z,6.30
2022-07-30T17:50:11.499Z,6.20
2022-07-30T17:52:13.589Z,6.30
2022-07-30T17:54:15.458Z,6.30
2022-07-30T17:56:26.961Z,6.40
2022-07-30T17:58:29.228Z,6.30
2022-07-30T18:00:31.303Z,6.40
2022-07-30T18:02:33.225Z,6.40
2022-07-30T18:04:35.442Z,7.10
2022-07-30T18:06:37.505Z,6.60
2022-07-30T18:08:39.243Z,6.60
2022-07-30T18:10:41.242Z,6.70
2022-07-30T18:12:49.113Z,6.60
2022-07-30T18:14:51.982Z,6.80
2022-07-30T18:16:54.415Z,6.90
2022-07-30T18:18:56.190Z,6.90
2022-07-30T18:20:57.965Z,6.90
2022-07-30T18:23:03.561Z,7.30
2022-07-30T18:25:18.734Z,7.30
2022-07-30T18:27:23.967Z,7.30
2022-07-30T18:29:25.688Z,7.80
2022-07-30T18:31:27.683Z,7.60
2022-07-30T18:33:29.499Z,7.70
2022-07-30T18:35:31.518Z,8.20
2022-07-30T18:37:41.455Z,8.50
2022-07-30T18:39:43.775Z,8.70
2022-07-30T18:41:45.468Z,8.90
2022-07-30T18:43:47.809Z,8.80
2022-07-30T18:45:51.554Z,8.60
2022-07-30T18:47:53.301Z,9.10
2022-07-30T18:49:56.058Z,8.80
2022-07-30T18:51:59.224Z,9.60
2022-07-30T18:54:00.981Z,9.00
2022-07-30T18:56:02.959Z,9.50
2022-07-30T18:58:04.758Z,9.10
2022-07-30T19:00:09.364Z,9.70
2022-07-30T19:02:11.173Z,9.50
2022-07-30T19:04:13.242Z,9.70
2022-07-30T19:06:16.108Z,9.90
2022-07-30T19:08:18.118Z,10.00
2022-07-30T19:10:20.080Z,9.70
2022-07-30T19:12:22.531Z,10.00
2022-07-30T19:14:24.510Z,10.10
2022-07-30T19:16:26.400Z,10.40
2022-07-30T19:18:28.220Z,10.40
2022-07-30T19:20:29.973Z,10.20
2022-07-30T19:22:31.826Z,10.20
2022-07-30T19:24:33.650Z,10.30
2022-07-30T19:26:35.685Z,10.40
2022-07-30T19:28:38.060Z,10.30
2022-07-30T19:30:39.882Z,10.30
2022-07-30T19:32:41.696Z,10.30
2022-07-30T19:34:43.639Z,10.30
2022-07-30T19:36:45.353Z,10.40
2022-07-30T19:38:48.765Z,10.50
2022-07-30T19:40:51.446Z,10.60
2022-07-30T19:42:55.932Z,10.70
2022-07-30T19:44:58.442Z,10.90
2022-07-30T19:47:03.931Z,10.90
2022-07-30T19:49:07.314Z,10.90
2022-07-30T19:51:15.798Z,10.90
2022-07-30T19:53:22.590Z,10.90
2022-07-30T19:57:54.536Z,11.30
2022-07-30T19:59:59.706Z,11.60
2022-07-30T20:02:02.397Z,11.90
2022-07-30T20:04:04.805Z,11.80
2022-07-30T20:06:14.465Z,11.80
2022-07-30T20:08:18.349Z,12.10
2022-07-30T20:10:26.881Z,11.90
2022-07-30T20:12:31.344Z,12.20
2022-07-30T20:14:33.214Z,12.00
2022-07-30T20:16:35.562Z,11.80
2022-07-30T20:18:39.109Z,11.90
2022-07-30T20:20:41.152Z,11.90
2022-07-30T20:22:43.787Z,12.00
2022-07-30T20:24:48.467Z,12.10
2022-07-30T20:26:50.479Z,12.20
2022-07-30T20:28:52.889Z,12.20
2022-07-30T20:30:54.748Z,12.10
2022-07-30T20:33:01.776Z,12.40
2022-07-30T20:35:06.464Z,12.30
2022-07-30T20:37:19.560Z,12.40
2022-07-30T20:39:25.821Z,12.40
2022-07-30T20:41:27.642Z,12.30
2022-07-30T20:43:29.589Z,12.40
2022-07-30T20:45:40.444Z,12.40
2022-07-30T20:47:43.406Z,12.30
2022-07-30T20:49:49.143Z,12.30
2022-07-30T20:51:51.569Z,12.30
2022-07-30T20:53:53.411Z,12.30
2022-07-30T20:55:55.296Z,12.30
2022-07-30T20:58:08.878Z,12.20
2022-07-30T21:00:18.733Z,12.40
2022-07-30T21:02:28.180Z,12.40
2022-07-30T21:04:30.841Z,12.60
2022-07-30T21:06:32.564Z,12.70
2022-07-30T21:08:36.641Z,12.80
2022-07-30T21:10:39.142Z,12.90
2022-07-30T21:12:44.622Z,13.00
2022-07-30T21:14:52.861Z,13.10
2022-07-30T21:16:56.304Z,13.00
2022-07-30T21:18:58.146Z,13.10
2022-07-30T21:21:00.733Z,13.20
2022-07-30T21:23:10.140Z,13.30
2022-07-30T21:25:12.083Z,13.40
2022-07-30T21:27:13.855Z,13.40
2022-07-30T21:29:17.877Z,13.50
2022-07-30T21:31:20.361Z,13.60
2022-07-30T21:33:42.100Z,13.50
2022-07-30T21:35:43.908Z,13.60
2022-07-30T21:37:45.629Z,13.60
2022-07-30T21:39:47.399Z,13.70
2022-07-30T21:41:49.237Z,13.70
2022-07-30T21:43:50.948Z,13.70
2022-07-30T21:45:54.797Z,13.80
2022-07-30T21:47:57.353Z,13.80
2022-07-30T21:50:01.510Z,13.90
2022-07-30T21:52:05.710Z,13.80
2022-07-30T21:54:08.199Z,14.40
2022-07-30T21:56:11.158Z,14.00
2022-07-30T21:58:25.896Z,13.90
2022-07-30T22:00:50.040Z,14.00
2022-07-30T22:02:52.973Z,14.10
2022-07-30T22:04:56.331Z,14.10
2022-07-30T22:07:02.322Z,14.10
2022-07-30T22:09:19.290Z,14.10
2022-07-30T22:11:42.808Z,14.20
2022-07-30T22:13:51.341Z,14.10
2022-07-30T22:15:55.290Z,14.20
2022-07-30T22:20:19.772Z,14.30
2022-07-30T22:22:27.250Z,14.30
2022-07-30T22:24:31.215Z,14.50
2022-07-30T22:26:33.250Z,14.50
2022-07-30T22:28:35.082Z,14.60
2022-07-30T22:30:39.189Z,14.70
2022-07-30T22:32:41.518Z,14.60
2022-07-30T22:34:44.849Z,14.70
2022-07-30T22:36:46.812Z,14.70
2022-07-30T22:38:58.482Z,14.80
2022-07-30T22:41:02.142Z,14.80
2022-07-30T22:43:09.755Z,14.80
2022-07-30T22:45:14.453Z,15.00
2022-07-30T22:47:21.087Z,15.00
2022-07-30T22:49:49.850Z,15.00
2022-07-30T22:52:05.058Z,15.00
2022-07-30T22:54:12.511Z,15.10
2022-07-30T22:56:15.790Z,15.20
2022-07-30T22:58:18.626Z,15.30
2022-07-30T23:02:49.780Z,15.60
2022-07-30T23:04:51.523Z,15.60
2022-07-30T23:06:53.299Z,15.60
2022-07-30T23:08:55.166Z,15.80
2022-07-30T23:10:57.180Z,15.90
2022-07-30T23:12:16.686Z,11.30
2022-07-30T23:12:28.557Z,14.30
2022-07-30T23:12:30.877Z,15.40
2022-07-30T23:12:58.991Z,15.70
2022-07-30T23:15:01.830Z,15.80
2022-07-30T23:17:03.999Z,15.80
2022-07-30T23:19:06.754Z,15.80
2022-07-30T23:21:08.538Z,15.80
2022-07-30T23:23:11.489Z,15.80
2022-07-30T23:25:14.618Z,15.70
2022-07-30T23:27:16.385Z,15.80
2022-07-30T23:29:18.169Z,15.90
2022-07-30T23:31:22.887Z,15.90
2022-07-30T23:33:27.415Z,15.80
2022-07-30T23:35:29.241Z,15.90
2022-07-30T23:37:38.081Z,15.80
2022-07-30T23:39:50.591Z,16.00
2022-07-30T23:41:52.341Z,15.90
2022-07-30T23:43:54.170Z,16.00
2022-07-30T23:45:56.318Z,16.00
2022-07-30T23:48:02.656Z,16.00
2022-07-30T23:50:06.592Z,16.00
2022-07-30T23:52:09.657Z,16.20
2022-07-30T23:54:11.467Z,16.20
2022-07-30T23:56:18.896Z,16.30
2022-07-30T23:58:20.756Z,16.50
